sensor_id;sensor_type;location;lat;lon;timestamp;P1;durP1;ratioP1;P2;durP2;ratioP2
66327;SDS011;53133;52.862;6.602;2023-05-07T00:02:21;12.88;;;10.80;;
66327;SDS011;53133;52.862;6.602;2023-05-07T00:04:47;14.52;;;12.15;;
66327;SDS011;53133;52.862;6.602;2023-05-07T00:07:14;16.65;;;11.57;;
66327;SDS011;53133;52.862;6.602;2023-05-07T00:09:39;17.83;;;12.82;;
66327;SDS011;53133;52.862;6.602;2023-05-07T00:12:05;17.13;;;12.27;;
66327;SDS011;53133;52.862;6.602;2023-05-07T00:14:31;15.15;;;13.27;;
66327;SDS011;53133;52.862;6.602;2023-05-07T00:16:57;16.80;;;13.65;;
66327;SDS011;53133;52.862;6.602;2023-05-07T00:19:22;19.15;;;13.88;;
66327;SDS011;53133;52.862;6.602;2023-05-07T00:21:48;18.90;;;13.40;;
66327;SDS011;53133;52.862;6.602;2023-05-07T00:24:14;21.15;;;14.43;;
66327;SDS011;53133;52.862;6.602;2023-05-07T00:26:39;18.00;;;14.23;;
66327;SDS011;53133;52.862;6.602;2023-05-07T00:29:05;15.43;;;13.82;;
66327;SDS011;53133;52.862;6.602;2023-05-07T00:31:30;18.00;;;13.55;;
66327;SDS011;53133;52.862;6.602;2023-05-07T00:33:56;15.93;;;13.40;;
66327;SDS011;53133;52.862;6.602;2023-05-07T00:36:21;19.10;;;14.93;;
66327;SDS011;53133;52.862;6.602;2023-05-07T00:38:47;17.50;;;14.48;;
66327;SDS011;53133;52.862;6.602;2023-05-07T00:41:13;21.02;;;15.25;;
66327;SDS011;53133;52.862;6.602;2023-05-07T00:43:38;17.63;;;15.02;;
66327;SDS011;53133;52.862;6.602;2023-05-07T00:46:04;19.13;;;15.07;;
66327;SDS011;53133;52.862;6.602;2023-05-07T00:48:30;17.42;;;15.27;;
66327;SDS011;53133;52.862;6.602;2023-05-07T00:50:56;25.92;;;17.80;;
66327;SDS011;53133;52.862;6.602;2023-05-07T00:53:22;21.80;;;16.50;;
66327;SDS011;53133;52.862;6.602;2023-05-07T00:55:48;22.55;;;17.98;;
66327;SDS011;53133;52.862;6.602;2023-05-07T00:58:13;24.88;;;18.33;;
66327;SDS011;53133;52.862;6.602;2023-05-07T01:00:42;22.25;;;17.63;;
66327;SDS011;53133;52.862;6.602;2023-05-07T01:03:07;23.35;;;18.45;;
66327;SDS011;53133;52.862;6.602;2023-05-07T01:05:33;24.27;;;19.48;;
66327;SDS011;53133;52.862;6.602;2023-05-07T01:07:59;23.80;;;19.50;;
66327;SDS011;53133;52.862;6.602;2023-05-07T01:10:27;23.23;;;18.15;;
66327;SDS011;53133;52.862;6.602;2023-05-07T01:12:55;23.67;;;20.33;;
66327;SDS011;53133;52.862;6.602;2023-05-07T01:15:21;23.70;;;19.15;;
66327;SDS011;53133;52.862;6.602;2023-05-07T01:17:47;26.80;;;20.58;;
66327;SDS011;53133;52.862;6.602;2023-05-07T01:20:13;26.50;;;20.13;;
66327;SDS011;53133;52.862;6.602;2023-05-07T01:22:39;28.33;;;19.33;;
66327;SDS011;53133;52.862;6.602;2023-05-07T01:25:05;24.48;;;19.67;;
66327;SDS011;53133;52.862;6.602;2023-05-07T01:27:32;27.15;;;20.38;;
66327;SDS011;53133;52.862;6.602;2023-05-07T01:30:02;24.08;;;19.05;;
66327;SDS011;53133;52.862;6.602;2023-05-07T01:32:32;27.00;;;19.75;;
66327;SDS011;53133;52.862;6.602;2023-05-07T01:35:02;26.73;;;19.77;;
66327;SDS011;53133;52.862;6.602;2023-05-07T01:37:30;26.92;;;20.35;;
66327;SDS011;53133;52.862;6.602;2023-05-07T01:39:56;24.40;;;20.27;;
66327;SDS011;53133;52.862;6.602;2023-05-07T01:42:22;25.52;;;20.08;;
66327;SDS011;53133;52.862;6.602;2023-05-07T01:44:51;27.58;;;21.00;;
66327;SDS011;53133;52.862;6.602;2023-05-07T01:47:16;31.80;;;21.15;;
66327;SDS011;53133;52.862;6.602;2023-05-07T01:49:42;30.55;;;20.90;;
66327;SDS011;53133;52.862;6.602;2023-05-07T01:52:10;26.25;;;20.20;;
66327;SDS011;53133;52.862;6.602;2023-05-07T01:54:36;24.45;;;19.45;;
66327;SDS011;53133;52.862;6.602;2023-05-07T01:57:02;27.42;;;20.67;;
66327;SDS011;53133;52.862;6.602;2023-05-07T01:59:27;30.17;;;20.83;;
66327;SDS011;53133;52.862;6.602;2023-05-07T02:01:53;27.73;;;20.85;;
66327;SDS011;53133;52.862;6.602;2023-05-07T02:04:19;30.42;;;21.88;;
66327;SDS011;53133;52.862;6.602;2023-05-07T02:06:44;25.90;;;20.77;;
66327;SDS011;53133;52.862;6.602;2023-05-07T02:09:10;28.67;;;21.58;;
66327;SDS011;53133;52.862;6.602;2023-05-07T02:11:36;33.58;;;21.13;;
66327;SDS011;53133;52.862;6.602;2023-05-07T02:14:01;28.85;;;21.45;;
66327;SDS011;53133;52.862;6.602;2023-05-07T02:16:27;35.58;;;22.33;;
66327;SDS011;53133;52.862;6.602;2023-05-07T02:18:52;32.90;;;23.25;;
66327;SDS011;53133;52.862;6.602;2023-05-07T02:21:18;32.50;;;22.58;;
66327;SDS011;53133;52.862;6.602;2023-05-07T02:23:44;30.35;;;22.30;;
66327;SDS011;53133;52.862;6.602;2023-05-07T02:26:10;29.40;;;21.35;;
66327;SDS011;53133;52.862;6.602;2023-05-07T02:28:36;33.03;;;23.25;;
66327;SDS011;53133;52.862;6.602;2023-05-07T02:31:04;34.47;;;23.75;;
66327;SDS011;53133;52.862;6.602;2023-05-07T02:33:30;30.65;;;22.83;;
66327;SDS011;53133;52.862;6.602;2023-05-07T02:35:56;32.10;;;24.23;;
66327;SDS011;53133;52.862;6.602;2023-05-07T02:38:22;30.98;;;22.70;;
66327;SDS011;53133;52.862;6.602;2023-05-07T02:40:47;32.63;;;22.80;;
66327;SDS011;53133;52.862;6.602;2023-05-07T02:43:13;30.83;;;22.33;;
66327;SDS011;53133;52.862;6.602;2023-05-07T02:45:39;31.98;;;23.13;;
66327;SDS011;53133;52.862;6.602;2023-05-07T02:48:04;33.58;;;25.00;;
66327;SDS011;53133;52.862;6.602;2023-05-07T02:50:31;38.78;;;25.55;;
66327;SDS011;53133;52.862;6.602;2023-05-07T02:52:57;35.22;;;25.73;;
66327;SDS011;53133;52.862;6.602;2023-05-07T02:55:23;33.42;;;25.02;;
66327;SDS011;53133;52.862;6.602;2023-05-07T02:57:49;34.55;;;24.80;;
66327;SDS011;53133;52.862;6.602;2023-05-07T03:00:16;34.35;;;24.20;;
66327;SDS011;53133;52.862;6.602;2023-05-07T03:02:43;34.25;;;25.58;;
66327;SDS011;53133;52.862;6.602;2023-05-07T03:05:11;37.60;;;26.50;;
66327;SDS011;53133;52.862;6.602;2023-05-07T03:07:37;36.83;;;26.33;;
66327;SDS011;53133;52.862;6.602;2023-05-07T03:10:03;38.38;;;25.73;;
66327;SDS011;53133;52.862;6.602;2023-05-07T03:12:30;38.38;;;26.83;;
66327;SDS011;53133;52.862;6.602;2023-05-07T03:14:56;37.97;;;26.70;;
66327;SDS011;53133;52.862;6.602;2023-05-07T03:17:22;39.85;;;27.08;;
66327;SDS011;53133;52.862;6.602;2023-05-07T03:19:47;38.83;;;26.85;;
66327;SDS011;53133;52.862;6.602;2023-05-07T03:22:13;42.10;;;28.38;;
66327;SDS011;53133;52.862;6.602;2023-05-07T03:24:39;43.65;;;29.15;;
66327;SDS011;53133;52.862;6.602;2023-05-07T03:27:05;41.25;;;28.88;;
66327;SDS011;53133;52.862;6.602;2023-05-07T03:29:30;43.85;;;29.08;;
66327;SDS011;53133;52.862;6.602;2023-05-07T03:31:56;42.95;;;28.70;;
66327;SDS011;53133;52.862;6.602;2023-05-07T03:34:21;42.08;;;28.05;;
66327;SDS011;53133;52.862;6.602;2023-05-07T03:36:50;43.33;;;29.08;;
66327;SDS011;53133;52.862;6.602;2023-05-07T03:39:16;43.40;;;29.85;;
66327;SDS011;53133;52.862;6.602;2023-05-07T03:41:41;44.65;;;28.95;;
66327;SDS011;53133;52.862;6.602;2023-05-07T03:44:07;43.22;;;29.45;;
66327;SDS011;53133;52.862;6.602;2023-05-07T03:46:33;44.58;;;30.75;;
66327;SDS011;53133;52.862;6.602;2023-05-07T03:48:59;43.15;;;29.05;;
66327;SDS011;53133;52.862;6.602;2023-05-07T03:51:25;48.15;;;30.38;;
66327;SDS011;53133;52.862;6.602;2023-05-07T03:53:51;45.22;;;29.92;;
66327;SDS011;53133;52.862;6.602;2023-05-07T03:56:18;45.00;;;30.17;;
66327;SDS011;53133;52.862;6.602;2023-05-07T03:58:44;44.22;;;30.50;;
66327;SDS011;53133;52.862;6.602;2023-05-07T04:01:09;45.53;;;29.13;;
66327;SDS011;53133;52.862;6.602;2023-05-07T04:03:35;47.13;;;31.10;;
66327;SDS011;53133;52.862;6.602;2023-05-07T04:06:01;44.97;;;30.52;;
66327;SDS011;53133;52.862;6.602;2023-05-07T04:08:26;44.65;;;30.17;;
66327;SDS011;53133;52.862;6.602;2023-05-07T04:10:55;45.53;;;30.08;;
66327;SDS011;53133;52.862;6.602;2023-05-07T04:13:22;45.17;;;30.02;;
66327;SDS011;53133;52.862;6.602;2023-05-07T04:15:47;45.95;;;30.85;;
66327;SDS011;53133;52.862;6.602;2023-05-07T04:18:14;47.88;;;31.55;;
66327;SDS011;53133;52.862;6.602;2023-05-07T04:20:40;41.85;;;30.77;;
66327;SDS011;53133;52.862;6.602;2023-05-07T04:23:06;46.20;;;31.70;;
66327;SDS011;53133;52.862;6.602;2023-05-07T04:25:32;47.63;;;29.85;;
66327;SDS011;53133;52.862;6.602;2023-05-07T04:27:58;46.65;;;31.95;;
66327;SDS011;53133;52.862;6.602;2023-05-07T04:30:23;45.35;;;30.17;;
66327;SDS011;53133;52.862;6.602;2023-05-07T04:32:50;43.47;;;29.83;;
66327;SDS011;53133;52.862;6.602;2023-05-07T04:35:15;45.25;;;30.20;;
66327;SDS011;53133;52.862;6.602;2023-05-07T04:37:42;44.40;;;30.10;;
66327;SDS011;53133;52.862;6.602;2023-05-07T04:40:08;48.13;;;30.10;;
66327;SDS011;53133;52.862;6.602;2023-05-07T04:42:33;41.33;;;28.60;;
66327;SDS011;53133;52.862;6.602;2023-05-07T04:44:59;46.03;;;30.70;;
66327;SDS011;53133;52.862;6.602;2023-05-07T04:47:26;44.95;;;29.00;;
66327;SDS011;53133;52.862;6.602;2023-05-07T04:49:54;43.08;;;28.45;;
66327;SDS011;53133;52.862;6.602;2023-05-07T04:52:20;38.95;;;27.45;;
66327;SDS011;53133;52.862;6.602;2023-05-07T04:54:45;42.63;;;29.05;;
66327;SDS011;53133;52.862;6.602;2023-05-07T04:57:11;41.35;;;28.73;;
66327;SDS011;53133;52.862;6.602;2023-05-07T04:59:36;37.70;;;26.08;;
66327;SDS011;53133;52.862;6.602;2023-05-07T05:02:02;36.28;;;26.80;;
66327;SDS011;53133;52.862;6.602;2023-05-07T05:04:29;37.10;;;27.02;;
66327;SDS011;53133;52.862;6.602;2023-05-07T05:06:54;36.13;;;26.10;;
66327;SDS011;53133;52.862;6.602;2023-05-07T05:09:20;34.80;;;26.00;;
66327;SDS011;53133;52.862;6.602;2023-05-07T05:11:46;36.35;;;25.98;;
66327;SDS011;53133;52.862;6.602;2023-05-07T05:14:11;35.90;;;25.83;;
66327;SDS011;53133;52.862;6.602;2023-05-07T05:16:37;34.42;;;25.50;;
66327;SDS011;53133;52.862;6.602;2023-05-07T05:19:03;36.95;;;25.83;;
66327;SDS011;53133;52.862;6.602;2023-05-07T05:21:28;36.28;;;25.45;;
66327;SDS011;53133;52.862;6.602;2023-05-07T05:23:54;37.35;;;25.85;;
66327;SDS011;53133;52.862;6.602;2023-05-07T05:26:19;36.30;;;25.10;;
66327;SDS011;53133;52.862;6.602;2023-05-07T05:28:46;36.00;;;25.73;;
66327;SDS011;53133;52.862;6.602;2023-05-07T05:31:15;33.63;;;25.23;;
66327;SDS011;53133;52.862;6.602;2023-05-07T05:33:41;37.72;;;24.85;;
66327;SDS011;53133;52.862;6.602;2023-05-07T05:36:09;34.53;;;24.98;;
66327;SDS011;53133;52.862;6.602;2023-05-07T05:38:35;33.97;;;23.83;;
66327;SDS011;53133;52.862;6.602;2023-05-07T05:41:01;35.13;;;23.90;;
66327;SDS011;53133;52.862;6.602;2023-05-07T05:43:26;37.90;;;23.58;;
66327;SDS011;53133;52.862;6.602;2023-05-07T05:45:52;34.03;;;25.52;;
66327;SDS011;53133;52.862;6.602;2023-05-07T05:48:18;34.53;;;24.80;;
66327;SDS011;53133;52.862;6.602;2023-05-07T05:50:43;31.67;;;24.40;;
66327;SDS011;53133;52.862;6.602;2023-05-07T05:53:09;36.25;;;24.25;;
66327;SDS011;53133;52.862;6.602;2023-05-07T05:55:34;33.45;;;24.52;;
66327;SDS011;53133;52.862;6.602;2023-05-07T05:58:00;34.90;;;25.60;;
66327;SDS011;53133;52.862;6.602;2023-05-07T06:00:26;33.88;;;24.88;;
66327;SDS011;53133;52.862;6.602;2023-05-07T06:02:52;36.20;;;24.00;;
66327;SDS011;53133;52.862;6.602;2023-05-07T06:05:18;36.35;;;25.10;;
66327;SDS011;53133;52.862;6.602;2023-05-07T06:07:43;34.92;;;24.88;;
66327;SDS011;53133;52.862;6.602;2023-05-07T06:10:09;34.85;;;25.17;;
66327;SDS011;53133;52.862;6.602;2023-05-07T06:12:35;34.78;;;25.42;;
66327;SDS011;53133;52.862;6.602;2023-05-07T06:15:00;36.10;;;25.70;;
66327;SDS011;53133;52.862;6.602;2023-05-07T06:17:26;36.05;;;25.05;;
66327;SDS011;53133;52.862;6.602;2023-05-07T06:19:52;34.22;;;24.92;;
66327;SDS011;53133;52.862;6.602;2023-05-07T06:22:18;37.15;;;25.58;;
66327;SDS011;53133;52.862;6.602;2023-05-07T06:24:44;33.47;;;24.98;;
66327;SDS011;53133;52.862;6.602;2023-05-07T06:27:09;35.85;;;25.48;;
66327;SDS011;53133;52.862;6.602;2023-05-07T06:29:35;36.05;;;25.40;;
66327;SDS011;53133;52.862;6.602;2023-05-07T06:32:07;36.03;;;24.85;;
66327;SDS011;53133;52.862;6.602;2023-05-07T06:34:33;39.35;;;25.85;;
66327;SDS011;53133;52.862;6.602;2023-05-07T06:36:59;33.85;;;25.30;;
66327;SDS011;53133;52.862;6.602;2023-05-07T06:39:25;37.03;;;25.25;;
66327;SDS011;53133;52.862;6.602;2023-05-07T06:41:50;37.05;;;25.25;;
66327;SDS011;53133;52.862;6.602;2023-05-07T06:44:16;36.83;;;26.73;;
66327;SDS011;53133;52.862;6.602;2023-05-07T06:46:41;35.00;;;26.33;;
66327;SDS011;53133;52.862;6.602;2023-05-07T06:49:07;35.03;;;25.38;;
66327;SDS011;53133;52.862;6.602;2023-05-07T06:51:32;39.58;;;27.55;;
66327;SDS011;53133;52.862;6.602;2023-05-07T06:53:58;37.20;;;27.63;;
66327;SDS011;53133;52.862;6.602;2023-05-07T06:56:24;37.38;;;27.30;;
66327;SDS011;53133;52.862;6.602;2023-05-07T06:58:50;37.22;;;26.13;;
66327;SDS011;53133;52.862;6.602;2023-05-07T07:01:15;36.58;;;26.55;;
66327;SDS011;53133;52.862;6.602;2023-05-07T07:03:41;35.83;;;26.73;;
66327;SDS011;53133;52.862;6.602;2023-05-07T07:06:07;37.47;;;26.90;;
66327;SDS011;53133;52.862;6.602;2023-05-07T07:08:32;39.95;;;28.67;;
66327;SDS011;53133;52.862;6.602;2023-05-07T07:10:59;38.75;;;27.40;;
66327;SDS011;53133;52.862;6.602;2023-05-07T07:13:25;39.08;;;27.52;;
66327;SDS011;53133;52.862;6.602;2023-05-07T07:15:51;38.60;;;27.13;;
66327;SDS011;53133;52.862;6.602;2023-05-07T07:18:16;38.65;;;27.60;;
66327;SDS011;53133;52.862;6.602;2023-05-07T07:20:42;39.22;;;27.50;;
66327;SDS011;53133;52.862;6.602;2023-05-07T07:23:09;36.97;;;27.63;;
66327;SDS011;53133;52.862;6.602;2023-05-07T07:25:35;38.95;;;27.83;;
66327;SDS011;53133;52.862;6.602;2023-05-07T07:28:00;38.45;;;27.50;;
66327;SDS011;53133;52.862;6.602;2023-05-07T07:30:26;36.83;;;26.80;;
66327;SDS011;53133;52.862;6.602;2023-05-07T07:32:55;38.88;;;26.13;;
66327;SDS011;53133;52.862;6.602;2023-05-07T07:35:25;40.97;;;27.25;;
66327;SDS011;53133;52.862;6.602;2023-05-07T07:37:53;40.20;;;27.20;;
66327;SDS011;53133;52.862;6.602;2023-05-07T07:40:19;40.55;;;27.52;;
66327;SDS011;53133;52.862;6.602;2023-05-07T07:42:44;41.03;;;28.88;;
66327;SDS011;53133;52.862;6.602;2023-05-07T07:45:10;39.78;;;27.75;;
66327;SDS011;53133;52.862;6.602;2023-05-07T07:47:35;37.60;;;27.30;;
66327;SDS011;53133;52.862;6.602;2023-05-07T07:50:01;41.55;;;28.85;;
66327;SDS011;53133;52.862;6.602;2023-05-07T07:52:30;39.13;;;27.15;;
66327;SDS011;53133;52.862;6.602;2023-05-07T07:54:56;44.90;;;27.95;;
66327;SDS011;53133;52.862;6.602;2023-05-07T07:57:21;39.42;;;28.85;;
66327;SDS011;53133;52.862;6.602;2023-05-07T07:59:47;40.15;;;27.48;;
66327;SDS011;53133;52.862;6.602;2023-05-07T08:02:12;41.15;;;29.08;;
66327;SDS011;53133;52.862;6.602;2023-05-07T08:04:38;41.80;;;27.50;;
66327;SDS011;53133;52.862;6.602;2023-05-07T08:07:03;38.42;;;26.98;;
66327;SDS011;53133;52.862;6.602;2023-05-07T08:09:29;37.92;;;26.92;;
66327;SDS011;53133;52.862;6.602;2023-05-07T08:11:55;40.63;;;27.55;;
66327;SDS011;53133;52.862;6.602;2023-05-07T08:14:20;43.28;;;28.55;;
66327;SDS011;53133;52.862;6.602;2023-05-07T08:16:46;40.65;;;28.10;;
66327;SDS011;53133;52.862;6.602;2023-05-07T08:19:12;41.47;;;28.40;;
66327;SDS011;53133;52.862;6.602;2023-05-07T08:21:38;41.50;;;29.30;;
66327;SDS011;53133;52.862;6.602;2023-05-07T08:24:04;41.33;;;29.02;;
66327;SDS011;53133;52.862;6.602;2023-05-07T08:26:30;41.05;;;29.35;;
66327;SDS011;53133;52.862;6.602;2023-05-07T08:28:56;39.72;;;27.67;;
66327;SDS011;53133;52.862;6.602;2023-05-07T08:31:21;41.55;;;27.92;;
66327;SDS011;53133;52.862;6.602;2023-05-07T08:33:50;37.80;;;28.00;;
66327;SDS011;53133;52.862;6.602;2023-05-07T08:36:15;38.72;;;27.95;;
66327;SDS011;53133;52.862;6.602;2023-05-07T08:38:41;41.88;;;28.17;;
66327;SDS011;53133;52.862;6.602;2023-05-07T08:41:09;39.78;;;27.58;;
66327;SDS011;53133;52.862;6.602;2023-05-07T08:43:35;39.08;;;27.98;;
66327;SDS011;53133;52.862;6.602;2023-05-07T08:46:02;40.45;;;28.73;;
66327;SDS011;53133;52.862;6.602;2023-05-07T08:48:32;44.25;;;29.20;;
66327;SDS011;53133;52.862;6.602;2023-05-07T08:50:58;38.55;;;28.15;;
66327;SDS011;53133;52.862;6.602;2023-05-07T08:53:24;42.50;;;28.75;;
66327;SDS011;53133;52.862;6.602;2023-05-07T08:55:50;36.75;;;26.70;;
66327;SDS011;53133;52.862;6.602;2023-05-07T08:58:17;37.15;;;26.00;;
66327;SDS011;53133;52.862;6.602;2023-05-07T09:00:43;39.20;;;27.52;;
66327;SDS011;53133;52.862;6.602;2023-05-07T09:03:08;39.72;;;27.45;;
66327;SDS011;53133;52.862;6.602;2023-05-07T09:05:37;38.88;;;28.67;;
66327;SDS011;53133;52.862;6.602;2023-05-07T09:08:04;38.90;;;27.60;;
66327;SDS011;53133;52.862;6.602;2023-05-07T09:10:32;39.10;;;28.55;;
66327;SDS011;53133;52.862;6.602;2023-05-07T09:12:59;37.35;;;27.83;;
66327;SDS011;53133;52.862;6.602;2023-05-07T09:15:25;40.33;;;28.85;;
66327;SDS011;53133;52.862;6.602;2023-05-07T09:17:52;37.08;;;26.83;;
66327;SDS011;53133;52.862;6.602;2023-05-07T09:20:18;40.42;;;27.25;;
66327;SDS011;53133;52.862;6.602;2023-05-07T09:22:44;41.05;;;28.55;;
66327;SDS011;53133;52.862;6.602;2023-05-07T09:25:10;37.22;;;27.23;;
66327;SDS011;53133;52.862;6.602;2023-05-07T09:27:36;38.20;;;27.15;;
66327;SDS011;53133;52.862;6.602;2023-05-07T09:30:05;36.55;;;26.48;;
66327;SDS011;53133;52.862;6.602;2023-05-07T09:32:34;36.20;;;26.92;;
66327;SDS011;53133;52.862;6.602;2023-05-07T09:35:02;35.85;;;25.63;;
66327;SDS011;53133;52.862;6.602;2023-05-07T09:37:30;33.22;;;25.90;;
66327;SDS011;53133;52.862;6.602;2023-05-07T09:39:56;37.08;;;27.02;;
66327;SDS011;53133;52.862;6.602;2023-05-07T09:42:25;35.05;;;25.33;;
66327;SDS011;53133;52.862;6.602;2023-05-07T09:44:52;35.08;;;26.65;;
66327;SDS011;53133;52.862;6.602;2023-05-07T09:47:20;33.92;;;24.75;;
66327;SDS011;53133;52.862;6.602;2023-05-07T09:49:48;34.40;;;25.38;;
66327;SDS011;53133;52.862;6.602;2023-05-07T09:52:15;34.15;;;25.23;;
66327;SDS011;53133;52.862;6.602;2023-05-07T09:54:41;34.47;;;25.42;;
66327;SDS011;53133;52.862;6.602;2023-05-07T09:57:10;33.50;;;25.42;;
66327;SDS011;53133;52.862;6.602;2023-05-07T09:59:37;33.85;;;24.60;;
66327;SDS011;53133;52.862;6.602;2023-05-07T10:02:03;31.50;;;24.80;;
66327;SDS011;53133;52.862;6.602;2023-05-07T10:04:30;34.13;;;24.35;;
66327;SDS011;53133;52.862;6.602;2023-05-07T10:06:57;29.63;;;23.80;;
66327;SDS011;53133;52.862;6.602;2023-05-07T10:09:23;34.53;;;25.33;;
66327;SDS011;53133;52.862;6.602;2023-05-07T10:11:51;31.42;;;24.05;;
66327;SDS011;53133;52.862;6.602;2023-05-07T10:14:17;31.25;;;24.08;;
66327;SDS011;53133;52.862;6.602;2023-05-07T10:16:45;31.95;;;24.45;;
66327;SDS011;53133;52.862;6.602;2023-05-07T10:19:12;33.83;;;24.92;;
66327;SDS011;53133;52.862;6.602;2023-05-07T10:21:39;30.75;;;24.00;;
66327;SDS011;53133;52.862;6.602;2023-05-07T10:24:16;29.90;;;22.55;;
66327;SDS011;53133;52.862;6.602;2023-05-07T10:26:56;30.63;;;23.38;;
66327;SDS011;53133;52.862;6.602;2023-05-07T10:29:37;28.75;;;22.50;;
66327;SDS011;53133;52.862;6.602;2023-05-07T10:34:42;27.38;;;21.80;;
66327;SDS011;53133;52.862;6.602;2023-05-07T10:37:12;29.05;;;22.60;;
66327;SDS011;53133;52.862;6.602;2023-05-07T10:39:38;28.27;;;21.35;;
66327;SDS011;53133;52.862;6.602;2023-05-07T10:42:08;33.13;;;22.58;;
66327;SDS011;53133;52.862;6.602;2023-05-07T10:44:37;30.13;;;22.15;;
66327;SDS011;53133;52.862;6.602;2023-05-07T10:47:10;26.85;;;21.67;;
66327;SDS011;53133;52.862;6.602;2023-05-07T10:54:43;28.15;;;21.52;;
66327;SDS011;53133;52.862;6.602;2023-05-07T10:57:32;29.67;;;21.35;;
66327;SDS011;53133;52.862;6.602;2023-05-07T11:00:00;26.63;;;22.05;;
66327;SDS011;53133;52.862;6.602;2023-05-07T11:05:23;28.05;;;21.65;;
66327;SDS011;53133;52.862;6.602;2023-05-07T11:08:02;26.45;;;20.05;;
66327;SDS011;53133;52.862;6.602;2023-05-07T11:16:17;25.40;;;19.48;;
66327;SDS011;53133;52.862;6.602;2023-05-07T11:18:48;26.08;;;20.40;;
66327;SDS011;53133;52.862;6.602;2023-05-07T11:21:37;27.48;;;21.27;;
66327;SDS011;53133;52.862;6.602;2023-05-07T11:24:09;27.25;;;21.60;;
66327;SDS011;53133;52.862;6.602;2023-05-07T11:26:45;26.60;;;21.08;;
66327;SDS011;53133;52.862;6.602;2023-05-07T11:29:16;23.70;;;19.75;;
66327;SDS011;53133;52.862;6.602;2023-05-07T11:31:44;26.73;;;20.77;;
66327;SDS011;53133;52.862;6.602;2023-05-07T11:34:20;25.92;;;20.90;;
66327;SDS011;53133;52.862;6.602;2023-05-07T11:36:50;25.27;;;20.80;;
66327;SDS011;53133;52.862;6.602;2023-05-07T11:39:23;27.60;;;20.83;;
66327;SDS011;53133;52.862;6.602;2023-05-07T11:41:50;23.60;;;20.08;;
66327;SDS011;53133;52.862;6.602;2023-05-07T11:44:15;25.60;;;20.77;;
66327;SDS011;53133;52.862;6.602;2023-05-07T11:46:42;24.92;;;21.17;;
66327;SDS011;53133;52.862;6.602;2023-05-07T11:49:09;25.77;;;20.65;;
66327;SDS011;53133;52.862;6.602;2023-05-07T11:51:35;24.88;;;20.40;;
66327;SDS011;53133;52.862;6.602;2023-05-07T11:54:03;26.20;;;20.83;;
66327;SDS011;53133;52.862;6.602;2023-05-07T11:56:31;25.45;;;20.42;;
66327;SDS011;53133;52.862;6.602;2023-05-07T11:59:00;26.47;;;19.83;;
66327;SDS011;53133;52.862;6.602;2023-05-07T12:01:26;24.30;;;20.25;;
66327;SDS011;53133;52.862;6.602;2023-05-07T12:03:51;26.52;;;20.30;;
66327;SDS011;53133;52.862;6.602;2023-05-07T12:06:17;25.27;;;21.02;;
66327;SDS011;53133;52.862;6.602;2023-05-07T12:08:44;22.90;;;19.90;;
66327;SDS011;53133;52.862;6.602;2023-05-07T12:11:21;25.30;;;20.45;;
66327;SDS011;53133;52.862;6.602;2023-05-07T12:13:48;25.17;;;19.67;;
66327;SDS011;53133;52.862;6.602;2023-05-07T12:16:14;25.70;;;20.35;;
66327;SDS011;53133;52.862;6.602;2023-05-07T12:18:40;25.92;;;20.75;;
66327;SDS011;53133;52.862;6.602;2023-05-07T12:21:06;26.98;;;20.48;;
66327;SDS011;53133;52.862;6.602;2023-05-07T12:23:33;26.80;;;19.50;;
66327;SDS011;53133;52.862;6.602;2023-05-07T12:26:02;27.13;;;20.83;;
66327;SDS011;53133;52.862;6.602;2023-05-07T12:28:28;24.08;;;19.50;;
66327;SDS011;53133;52.862;6.602;2023-05-07T12:30:55;22.35;;;18.67;;
66327;SDS011;53133;52.862;6.602;2023-05-07T12:33:24;24.85;;;20.70;;
66327;SDS011;53133;52.862;6.602;2023-05-07T12:35:52;23.23;;;19.27;;
66327;SDS011;53133;52.862;6.602;2023-05-07T12:38:19;24.25;;;19.20;;
66327;SDS011;53133;52.862;6.602;2023-05-07T12:40:45;23.63;;;19.00;;
66327;SDS011;53133;52.862;6.602;2023-05-07T12:43:24;22.90;;;19.85;;
66327;SDS011;53133;52.862;6.602;2023-05-07T12:45:51;22.10;;;18.67;;
66327;SDS011;53133;52.862;6.602;2023-05-07T12:48:19;22.58;;;18.27;;
66327;SDS011;53133;52.862;6.602;2023-05-07T12:50:48;22.58;;;18.08;;
66327;SDS011;53133;52.862;6.602;2023-05-07T12:53:14;21.70;;;18.67;;
66327;SDS011;53133;52.862;6.602;2023-05-07T12:55:44;22.75;;;18.42;;
66327;SDS011;53133;52.862;6.602;2023-05-07T12:58:15;21.95;;;18.17;;
66327;SDS011;53133;52.862;6.602;2023-05-07T13:00:42;20.47;;;17.10;;
66327;SDS011;53133;52.862;6.602;2023-05-07T13:03:08;25.38;;;18.80;;
66327;SDS011;53133;52.862;6.602;2023-05-07T13:05:34;22.77;;;18.00;;
66327;SDS011;53133;52.862;6.602;2023-05-07T13:08:00;24.02;;;19.42;;
66327;SDS011;53133;52.862;6.602;2023-05-07T13:10:26;22.50;;;19.02;;
66327;SDS011;53133;52.862;6.602;2023-05-07T13:12:52;23.83;;;17.95;;
66327;SDS011;53133;52.862;6.602;2023-05-07T13:15:18;19.77;;;17.42;;
66327;SDS011;53133;52.862;6.602;2023-05-07T13:17:43;20.23;;;16.92;;
66327;SDS011;53133;52.862;6.602;2023-05-07T13:20:09;21.00;;;17.40;;
66327;SDS011;53133;52.862;6.602;2023-05-07T13:22:36;20.10;;;16.45;;
66327;SDS011;53133;52.862;6.602;2023-05-07T13:25:02;19.75;;;15.45;;
66327;SDS011;53133;52.862;6.602;2023-05-07T13:27:27;18.50;;;16.25;;
66327;SDS011;53133;52.862;6.602;2023-05-07T13:29:55;21.38;;;17.92;;
66327;SDS011;53133;52.862;6.602;2023-05-07T13:32:21;20.20;;;17.15;;
66327;SDS011;53133;52.862;6.602;2023-05-07T13:34:47;19.25;;;16.27;;
66327;SDS011;53133;52.862;6.602;2023-05-07T13:37:12;18.17;;;16.10;;
66327;SDS011;53133;52.862;6.602;2023-05-07T13:39:38;18.35;;;16.42;;
66327;SDS011;53133;52.862;6.602;2023-05-07T13:42:04;19.10;;;16.52;;
66327;SDS011;53133;52.862;6.602;2023-05-07T13:44:29;19.05;;;16.58;;
66327;SDS011;53133;52.862;6.602;2023-05-07T13:46:55;18.67;;;16.48;;
66327;SDS011;53133;52.862;6.602;2023-05-07T13:49:20;18.08;;;16.17;;
66327;SDS011;53133;52.862;6.602;2023-05-07T13:51:46;20.75;;;17.27;;
66327;SDS011;53133;52.862;6.602;2023-05-07T13:54:12;19.88;;;17.13;;
66327;SDS011;53133;52.862;6.602;2023-05-07T13:56:37;20.17;;;18.05;;
66327;SDS011;53133;52.862;6.602;2023-05-07T13:59:03;21.85;;;18.80;;
66327;SDS011;53133;52.862;6.602;2023-05-07T14:01:28;21.05;;;18.83;;
66327;SDS011;53133;52.862;6.602;2023-05-07T14:03:56;20.25;;;17.58;;
66327;SDS011;53133;52.862;6.602;2023-05-07T14:06:25;20.27;;;18.02;;
66327;SDS011;53133;52.862;6.602;2023-05-07T14:08:50;19.50;;;16.80;;
66327;SDS011;53133;52.862;6.602;2023-05-07T14:11:16;18.92;;;17.02;;
66327;SDS011;53133;52.862;6.602;2023-05-07T14:13:42;17.75;;;15.85;;
66327;SDS011;53133;52.862;6.602;2023-05-07T14:16:07;17.90;;;15.57;;
66327;SDS011;53133;52.862;6.602;2023-05-07T14:18:33;21.70;;;16.88;;
66327;SDS011;53133;52.862;6.602;2023-05-07T14:21:00;19.20;;;16.83;;
66327;SDS011;53133;52.862;6.602;2023-05-07T14:23:25;18.65;;;16.65;;
66327;SDS011;53133;52.862;6.602;2023-05-07T14:25:51;18.75;;;16.83;;
66327;SDS011;53133;52.862;6.602;2023-05-07T14:28:18;18.98;;;16.98;;
66327;SDS011;53133;52.862;6.602;2023-05-07T14:30:44;18.10;;;16.27;;
66327;SDS011;53133;52.862;6.602;2023-05-07T14:33:09;18.50;;;16.50;;
66327;SDS011;53133;52.862;6.602;2023-05-07T14:35:35;18.98;;;17.17;;